Terminal Aerodrome Forecast
Issued by NWS Houston/Galveston, TX

Home | Current Version | Previous Version | Text Only | Print | Product List | Glossary On
Versions: 1 2 3 4 5 6 7 8 9 10 11 12 13 14 15 16 17 18 19 20 21 22 23 24 25 26 27 28 29 30 31 32 33 34 35 36 37 38
000
FTUS44 KHGX 181336 AAB
TAFGLS
TAF AMD
KGLS 181336Z 1814/1912 01008KT 5SM FU SKC
      TEMPO 1814/1815 2SM FU
     FM181700 09008KT P6SM FEW030 SCT250
     FM191000 08007KT P6SM SCT035=

USA.gov is the U.S. government's official web portal to all federal, state and local government web resources and services.